Ashford, WA (98304)

11:50 PM PDT on August 30, 2015 (GMT -0700)
Alpine Village | | Change Station
CLOSE
Current Station
Personal Weather Station
Location: Ashford, WA
Elevation: 1842 ft
Nearby Weather Stations

Elev 1842 ft 46.76 °N, 121.99 °W | Updated 1 minute ago

Mostly Cloudy
Mostly Cloudy
52.0 °F
Feels Like 52.0 °F
N
0.0
Wind Variable Wind from SW
Gusts 0.0 mph

Today
High -- | Low -- °F
--% Chance of Precip.
Yesterday
High -- | Low -- °F
Precip. -- in
6:24 AM 7:51 PM
Waning Gibbous, 97% visible
Pressure 30.02 in
Visibility 10.0 miles
Clouds Overcast 9000 ft
Dew Point 51 °F
Humidity 98%
Rainfall 0.52 in
Snow Depth Not available.
UV 0 out of 12
Pollen .50 out of 12
Air Quality Not available.
Flu Activity Not available.
METAR KPLU 310615Z AUTO VRB05KT 10SM OVC090 16/11 A3002 RMK AO2
Pressure 30.02 in
Visibility 10.0 miles
Clouds Overcast 9000 ft
Dew Point 51 °F
Humidity 98%
Rainfall 0.52 in
Snow Depth Not available.
UV 0 out of 12
Pollen .50 out of 12
Air Quality Not available.
Flu Activity Not available.
METAR KPLU 310615Z AUTO VRB05KT 10SM OVC090 16/11 A3002 RMK AO2

10-Day Weather Forecast

×

Almanac

Astronomy

Aug. 30, 2015 Rise Set
Actual Time
Civil Twilight
Nautical Twilight
Astronomical Twilight
Moon
Length of Visible Light
Length of Day
Tomorrow will be .
, % of the Moon is Illuminated

Today's Extremes

State Highs State Lows

Community

WunderPhotos

Upload Photos

1,851,217 photos uploaded!

WunderBlogs® & News

Nearby

Air Quality

  Air Quality AQ Index Pollutant
Not available.

Snow Depth

Station Depth Elevation

Earthquake Activity

City Distance Mag. Time & Date
Minimum magnitude displayed is 2.5.

Coastal Water Temperatures

Place Temperature

Stations

Nearby Weather Stations

Station Location Temp. Windchill Dew Point Humidity Wind Precip. Elev Updated Type